Clinton, NC

3:00 PM EDT on July 22, 2014 (GMT -0400)
Sampson County (KCTZ) Elev 148 ft | 34.98 °N, 78.36 °W | Change Station

Current weather conditions updated 30 minutes ago

Scattered Clouds
Scattered Clouds
88 °F
Feels Like 96 °F
N
4
Wind Variable Wind from East

Today is forecast to be Much Warmer than yesterday. Thunderstorms.

Today
High -- | Low -- °F
--% Chance of Precip.
Yesterday
High -- | Low -- °F
Precip. -- in
6:15 AM 8:23 PM
Waning Crescent, 15% visible
Pressure 30.10 in
Visibility 10.0 miles
Clouds Scattered Clouds 3000 ft
Scattered Clouds 3700 ft
Scattered Clouds 4800 ft
Heat Index 96 °F
Dew Point 74 °F
Humidity 64%
Rainfall 0.00 in
Snow Depth Not available.
UV 9 out of 12
Pollen 2.30 out of 12
Ozone Good
PM2.5 Good
Flu Activity No Activity
METAR KCTZ 221830Z AUTO 10003KT 10SM SCT030 SCT037 SCT048 31/24 A3010 RMK AO2 T03090235

More Conditions Fewer Conditions

Pressure 30.10 in
Visibility 10.0 miles
Clouds Scattered Clouds 3000 ft
Scattered Clouds 3700 ft
Scattered Clouds 4800 ft
Heat Index 96 °F
Dew Point 74 °F
Humidity 64%
Rainfall 0.00 in
Snow Depth Not available.
UV 9 out of 12
Pollen 2.30 out of 12
Ozone Good
PM2.5 Good
Flu Activity No Activity
METAR KCTZ 221830Z AUTO 10003KT 10SM SCT030 SCT037 SCT048 31/24 A3010 RMK AO2 T03090235

More Conditions Fewer Conditions

10-Day Weather Forecast

Almanac

Astronomy

Jul. 22, 2014 Rise Set
Actual Time 6:15 AM EDT 8:23 PM EDT
Civil Twilight 5:46 AM EDT 8:52 PM EDT
Nautical Twilight 5:12 AM EDT 9:26 PM EDT
Astronomical Twilight 4:34 AM EDT 10:04 PM EDT
Moon 2:45 AM EDT 5:00 PM EDT
Length of Visible Light 15h 05m
Length of Day
14h 08m
Tomorrow will be 1m 21s shorter.
Waning Crescent, 15% of the Moon is Illuminated
Today
Waning Crescent
Jul 26
New
Aug 3
First Quarter
Aug 10
Full
Aug 17
Last Quarter

Today's Extremes

State Highs State Lows

Community

WunderPhotos

Upload Photos

1,736,333 photos uploaded!

Nearby

Air Quality

  Air Quality AQ Index Pollutant
Yesterday Good
PM2.5
Yesterday Good
OZONE
Current Good
OZONE
Current Good
PM2.5
Tuesday Good
PM2.5
Tuesday Good
OZONE
Wednesday Good
PM2.5
Wednesday Good
OZONE
Thursday Good
PM2.5
Thursday Good
OZONE
Friday Good
PM2.5
Friday Good
OZONE

Snow Depth

Station Depth Elevation
No new snow has been reported.

Earthquake Activity

City Distance Mag. Time & Date
No recent earthquake activity has been reported nearby.
Minimum magnitude displayed is 2.5.

Coastal Water Temperatures

Place Temperature
No Stations Reporting

Nearby Weather Stations

Station Location Temp. Heat Index Dew Point Humidity Wind Precip. Elev Updated Type
Big Creek, Stedman, NC 89.0 °F 99 °F 75 °F 63% East  at  1.0 mph 0.00 in / hr 98 ft 3:00 PM EDT Rapid Fire
Newton Grove, NC 95.4 °F 90 °F 18 °F 6% SSE  at  0.0 mph 0.00 in / hr 156 ft 2:59 PM EDT Normal
RAWS NC FIRE RAWS #3 NC, Kenansville, NC 87 °F 104 °F 81 °F 82% North  at  0 mph 0.00 in / hr 138 ft 1:49 PM EDT MADIS

Show More Stations Show Fewer Stations